Time;durP1;ratioP1;P1;durP2;ratioP2;P2;SDS_P1;SDS_P2;PMS_P1;PMS_P2;Temp;Humidity;BMP_temperature;BMP_pressure;BME280_temperature;BME280_humidity;BME280_pressure;Samples;Min_cycle;Max_cycle;Signal;HPM_P1;HPM_P2
2024/01/21 00:01:39;;;;;;;28.57;16.57;;;;;;;-1.54;63.73;97410.19;5075975;28;20575;-66
2024/01/21 00:04:06;;;;;;;22.90;17.43;;;;;;;-1.58;63.91;97403.28;5079732;28;20205;-68
2024/01/21 00:06:31;;;;;;;20.43;16.00;;;;;;;-1.67;64.91;97405.66;5066288;28;20185;-67
2024/01/21 00:08:57;;;;;;;27.77;16.33;;;;;;;-1.71;64.39;97395.28;5069818;28;20428;-67
2024/01/21 00:11:22;;;;;;;85.60;22.77;;;;;;;-1.62;64.69;97397.19;5073956;28;20956;-67
2024/01/21 00:13:48;;;;;;;25.30;17.10;;;;;;;-1.76;64.88;97386.59;5078040;28;20291;-67
2024/01/21 00:16:13;;;;;;;20.63;15.97;;;;;;;-1.62;63.96;97378.31;5079163;28;20284;-66
2024/01/21 00:18:38;;;;;;;23.70;16.20;;;;;;;-1.76;64.62;97378.03;5076094;28;20189;-66
2024/01/21 00:21:04;;;;;;;20.67;15.33;;;;;;;-1.79;64.67;97388.28;5077071;28;20210;-67
2024/01/21 00:23:29;;;;;;;22.47;15.37;;;;;;;-1.68;63.89;97380.75;5067117;28;20206;-67
2024/01/21 00:25:55;;;;;;;23.97;17.03;;;;;;;-1.89;64.86;97386.31;5069238;28;20755;-67
2024/01/21 00:28:20;;;;;;;24.03;16.00;;;;;;;-1.89;65.22;97376.03;5064385;28;20591;-68
2024/01/21 00:30:45;;;;;;;25.27;15.57;;;;;;;-2.17;66.21;97365.19;5079397;28;20193;-66
2024/01/21 00:33:11;;;;;;;25.77;18.60;;;;;;;-2.55;67.17;97365.22;5079858;28;20177;-68
2024/01/21 00:35:36;;;;;;;26.70;18.10;;;;;;;-2.32;66.28;97369.97;5071175;28;20802;-68
2024/01/21 00:38:02;;;;;;;25.80;16.00;;;;;;;-2.02;65.19;97374.91;5073041;28;20185;-66
2024/01/21 00:40:28;;;;;;;23.30;17.30;;;;;;;-1.95;65.14;97372.50;5072152;28;20226;-66
2024/01/21 00:42:56;;;;;;;29.73;18.50;;;;;;;-1.92;64.71;97359.69;5077068;28;20267;-67
2024/01/21 00:45:21;;;;;;;24.20;17.33;;;;;;;-1.79;64.81;97357.41;5079337;28;20432;-66
2024/01/21 00:47:46;;;;;;;25.03;16.80;;;;;;;-1.84;64.70;97354.72;5066162;28;20830;-67
2024/01/21 00:50:12;;;;;;;19.97;16.07;;;;;;;-1.84;64.98;97365.03;5068371;28;20271;-68
2024/01/21 00:52:37;;;;;;;23.00;16.97;;;;;;;-1.71;64.37;97361.84;5068133;28;20960;-68
2024/01/21 00:55:03;;;;;;;20.10;15.67;;;;;;;-1.65;64.33;97365.34;5077239;28;20194;-68
2024/01/21 00:57:28;;;;;;;25.07;16.50;;;;;;;-1.89;65.09;97370.88;5072231;28;20198;-65
2024/01/21 00:59:54;;;;;;;22.60;16.00;;;;;;;-2.00;64.74;97373.25;5069789;28;20202;-66
2024/01/21 01:02:19;;;;;;;23.93;16.70;;;;;;;-1.98;65.57;97380.16;5073495;28;20205;-66
2024/01/21 01:04:44;;;;;;;20.17;14.67;;;;;;;-2.04;65.28;97371.44;5076282;28;21702;-67
2024/01/21 01:07:10;;;;;;;29.20;18.20;;;;;;;-2.00;64.61;97368.97;5084623;28;20181;-67
2024/01/21 01:09:36;;;;;;;21.90;17.00;;;;;;;-2.62;65.53;97381.31;5084755;28;20185;-66
2024/01/21 01:12:02;;;;;;;21.57;16.07;;;;;;;-2.47;65.78;97376.53;5085054;28;20310;-67
2024/01/21 01:14:27;;;;;;;27.63;17.90;;;;;;;-2.29;64.98;97367.47;5070651;28;20424;-66
2024/01/21 01:16:52;;;;;;;24.87;16.53;;;;;;;-2.36;65.74;97364.78;5090318;28;20182;-67
2024/01/21 01:19:18;;;;;;;22.70;17.60;;;;;;;-2.36;65.46;97369.94;5075970;28;20921;-68
2024/01/21 01:21:43;;;;;;;20.83;16.40;;;;;;;-2.47;65.66;97373.94;5081385;28;20343;-68
2024/01/21 01:24:08;;;;;;;22.67;16.77;;;;;;;-2.32;65.13;97383.69;5083029;28;20208;-67
2024/01/21 01:26:34;;;;;;;20.27;14.53;;;;;;;-2.22;64.11;97379.63;5074271;28;20179;-66
2024/01/21 01:28:59;;;;;;;27.30;17.73;;;;;;;-2.24;64.63;97382.19;5072538;28;20264;-67
2024/01/21 01:31:25;;;;;;;27.93;16.73;;;;;;;-2.01;64.21;97385.25;5073998;28;20201;-67
2024/01/21 01:33:51;;;;;;;23.30;14.30;;;;;;;-2.10;63.75;97390.19;5072308;28;20173;-67
2024/01/21 01:36:16;;;;;;;23.30;15.17;;;;;;;-1.89;62.81;97396.63;5070008;28;20186;-67
2024/01/21 01:38:41;;;;;;;21.57;15.93;;;;;;;-1.93;62.45;97387.97;5085623;28;20933;-66
2024/01/21 01:41:07;;;;;;;20.70;17.00;;;;;;;-1.90;62.24;97394.88;5073191;28;20224;-67
2024/01/21 01:43:32;;;;;;;27.63;17.07;;;;;;;-2.04;62.42;97387.75;5077786;28;20568;-68
2024/01/21 01:46:00;;;;;;;23.87;15.67;;;;;;;-2.08;61.99;97378.22;5072160;28;20265;-67
2024/01/21 01:48:30;;;;;;;24.43;13.93;;;;;;;-2.09;61.82;97378.19;5080144;28;20181;-66
2024/01/21 01:50:58;;;;;;;20.90;15.00;;;;;;;-2.20;62.72;97375.38;5083746;28;20582;-65
2024/01/21 01:53:24;;;;;;;24.00;14.77;;;;;;;-2.23;62.22;97370.19;5075400;28;20432;-66
2024/01/21 01:55:50;;;;;;;22.07;14.87;;;;;;;-2.32;62.19;97369.97;5067069;28;20440;-66
2024/01/21 01:58:18;;;;;;;26.00;15.53;;;;;;;-2.27;62.75;97363.22;5077332;28;20227;-67
2024/01/21 02:00:44;;;;;;;22.03;15.70;;;;;;;-2.36;62.40;97364.78;5074144;28;20288;-67
2024/01/21 02:03:09;;;;;;;17.97;14.30;;;;;;;-2.38;62.56;97363.03;5083540;28;20455;-67
2024/01/21 02:05:35;;;;;;;19.40;15.20;;;;;;;-2.47;63.09;97357.66;5083046;28;20446;-66
2024/01/21 02:08:00;;;;;;;21.87;14.03;;;;;;;-2.44;62.78;97355.16;5071515;28;20619;-67
2024/01/21 02:10:29;;;;;;;21.63;13.80;;;;;;;-2.41;62.76;97360.34;5069290;28;20217;-67
2024/01/21 02:12:55;;;;;;;19.20;13.87;;;;;;;-2.52;62.68;97365.28;5087196;28;20169;-66
2024/01/21 02:15:20;;;;;;;21.33;14.70;;;;;;;-2.58;63.58;97365.13;5087318;28;20426;-65
2024/01/21 02:17:46;;;;;;;20.53;14.53;;;;;;;-2.46;62.73;97367.97;5087233;28;20246;-66
2024/01/21 02:20:11;;;;;;;23.20;14.13;;;;;;;-2.49;62.62;97378.19;5087186;28;21017;-67
2024/01/21 02:22:40;;;;;;;22.30;15.07;;;;;;;-2.55;62.76;97380.63;5087717;28;20166;-67
2024/01/21 02:25:07;;;;;;;24.00;14.73;;;;;;;-2.36;62.87;97379.34;5087560;28;20178;-65
2024/01/21 02:27:33;;;;;;;30.40;16.47;;;;;;;-2.39;61.95;97377.53;5087222;28;20416;-68
2024/01/21 02:29:58;;;;;;;19.53;13.83;;;;;;;-2.49;62.23;97378.19;5087745;28;20513;-67
2024/01/21 02:32:24;;;;;;;25.73;14.67;;;;;;;-2.64;63.07;97373.56;5087300;28;20423;-68
2024/01/21 02:34:49;;;;;;;17.30;13.60;;;;;;;-2.52;62.45;97374.69;5087767;28;20892;-65
2024/01/21 02:37:14;;;;;;;20.23;14.10;;;;;;;-2.59;61.24;97378.81;5087838;28;20174;-67
2024/01/21 02:39:40;;;;;;;18.80;13.80;;;;;;;-2.52;60.57;97379.81;5087534;28;20265;-67
2024/01/21 02:42:06;;;;;;;17.30;12.97;;;;;;;-2.43;60.49;97370.63;5087445;28;20169;-67
2024/01/21 02:44:31;;;;;;;24.27;14.07;;;;;;;-2.45;60.03;97369.72;5087848;28;20217;-67
2024/01/21 02:46:56;;;;;;;18.30;14.93;;;;;;;-2.44;60.54;97355.16;5071130;28;20417;-66
2024/01/21 02:49:24;;;;;;;21.90;13.17;;;;;;;-2.38;60.15;97356.16;5066913;28;20178;-66
2024/01/21 02:51:49;;;;;;;17.77;13.70;;;;;;;-2.55;60.95;97367.78;5067100;28;20158;-64
2024/01/21 02:54:15;;;;;;;17.73;13.23;;;;;;;-2.64;61.59;97359.84;5068914;28;20960;-66
2024/01/21 02:56:40;;;;;;;24.63;14.60;;;;;;;-2.53;61.65;97354.94;5078663;28;20204;-65
2024/01/21 02:59:06;;;;;;;18.17;14.63;;;;;;;-2.52;61.57;97352.41;5086691;28;20166;-66
2024/01/21 03:01:34;;;;;;;18.37;13.83;;;;;;;-2.61;62.42;97350.50;5086221;28;20193;-66
2024/01/21 03:03:59;;;;;;;21.40;14.10;;;;;;;-2.43;61.44;97347.50;5082927;28;20208;-65
2024/01/21 03:06:24;;;;;;;19.23;15.20;;;;;;;-2.46;61.96;97346.53;5069961;28;20432;-66
2024/01/21 03:08:50;;;;;;;22.23;14.70;;;;;;;-2.57;63.17;97343.75;5072206;28;20185;-65
2024/01/21 03:11:15;;;;;;;20.50;14.70;;;;;;;-2.36;61.98;97340.78;5074789;28;20245;-66
2024/01/21 03:13:41;;;;;;;22.70;14.63;;;;;;;-2.37;61.35;97342.47;5072617;28;20178;-66
2024/01/21 03:16:06;;;;;;;16.47;13.57;;;;;;;-2.41;61.38;97342.38;5072684;28;20812;-67
2024/01/21 03:18:31;;;;;;;21.97;16.57;;;;;;;-2.60;62.03;97343.66;5078310;28;20185;-67
2024/01/21 03:20:57;;;;;;;21.47;15.47;;;;;;;-2.68;62.19;97347.75;5081617;28;20212;-66
2024/01/21 03:23:22;;;;;;;23.47;14.50;;;;;;;-2.63;62.73;97339.31;5066874;28;20206;-67
2024/01/21 03:25:47;;;;;;;26.43;15.10;;;;;;;-2.75;62.42;97339.03;5069512;28;21035;-67
2024/01/21 03:28:13;;;;;;;23.30;15.17;;;;;;;-2.60;62.78;97341.97;5074765;28;20656;-67
2024/01/21 03:30:41;;;;;;;20.47;15.53;;;;;;;-2.63;62.55;97341.88;5073432;28;20275;-67
2024/01/21 03:33:06;;;;;;;24.73;14.57;;;;;;;-2.85;62.90;97348.25;5079539;28;20925;-64
2024/01/21 03:35:31;;;;;;;21.60;13.97;;;;;;;-2.99;62.58;97340.19;5072877;28;20440;-67
2024/01/21 03:37:57;;;;;;;21.17;14.00;;;;;;;-2.89;62.76;97341.28;5072994;28;20182;-67
2024/01/21 03:40:22;;;;;;;18.53;13.90;;;;;;;-2.98;63.12;97346.19;5072317;28;20204;-66
2024/01/21 03:42:47;;;;;;;24.00;14.63;;;;;;;-2.90;62.71;97351.53;5073016;28;20246;-66
2024/01/21 03:45:13;;;;;;;22.13;14.57;;;;;;;-3.18;63.50;97348.28;5071141;28;20552;-66
2024/01/21 03:47:38;;;;;;;23.67;16.40;;;;;;;-3.26;63.58;97350.66;5080933;28;20209;-65
2024/01/21 03:50:05;;;;;;;25.00;15.70;;;;;;;-3.29;62.50;97340.31;5067559;28;20226;-66
2024/01/21 03:52:30;;;;;;;21.83;14.00;;;;;;;-3.18;62.30;97344.88;5067363;28;20220;-65
2024/01/21 03:54:56;;;;;;;20.83;15.63;;;;;;;-3.06;61.57;97350.28;5070599;28;20579;-66
2024/01/21 03:57:21;;;;;;;20.73;15.50;;;;;;;-2.90;61.29;97359.25;5075674;28;20190;-67
2024/01/21 03:59:47;;;;;;;22.07;16.30;;;;;;;-2.92;61.99;97348.94;5080301;28;20324;-66
2024/01/21 04:02:12;;;;;;;25.33;16.10;;;;;;;-2.84;60.79;97357.66;5076158;28;20213;-67
2024/01/21 04:04:38;;;;;;;25.53;16.27;;;;;;;-2.80;62.25;97350.91;5065950;28;20259;-66
2024/01/21 04:07:03;;;;;;;24.00;16.63;;;;;;;-2.92;62.81;97355.78;5068079;28;20182;-65
2024/01/21 04:09:29;;;;;;;30.73;16.67;;;;;;;-3.09;63.43;97353.66;5076674;28;20181;-67
2024/01/21 04:11:54;;;;;;;23.63;16.87;;;;;;;-3.08;65.06;97351.94;5072726;28;20683;-63
2024/01/21 04:14:19;;;;;;;25.77;17.30;;;;;;;-3.10;65.64;97357.03;5077727;28;20173;-64
2024/01/21 04:16:45;;;;;;;26.07;17.37;;;;;;;-3.09;65.81;97345.09;5064755;28;20221;-65
2024/01/21 04:19:10;;;;;;;26.90;18.00;;;;;;;-3.17;66.73;97344.00;5065245;28;20174;-66
2024/01/21 04:21:36;;;;;;;26.40;18.00;;;;;;;-3.01;66.42;97335.84;5068757;28;20395;-66
2024/01/21 04:24:02;;;;;;;22.27;16.20;;;;;;;-3.00;66.24;97338.47;5074529;28;20225;-66
2024/01/21 04:26:28;;;;;;;36.70;17.23;;;;;;;-3.08;66.10;97334.84;5077560;28;20193;-67
2024/01/21 04:28:53;;;;;;;26.00;18.03;;;;;;;-3.31;67.96;97329.13;5080621;28;20192;-66
2024/01/21 04:31:18;;;;;;;31.47;17.87;;;;;;;-3.30;67.40;97325.75;5066900;28;20209;-65
2024/01/21 04:33:44;;;;;;;32.90;18.53;;;;;;;-3.17;67.39;97329.47;5067421;28;20225;-67
2024/01/21 04:36:16;;;;;;;23.83;16.33;;;;;;;-3.26;66.66;97321.53;5077060;28;20186;-65
2024/01/21 04:38:41;;;;;;;32.60;17.77;;;;;;;-3.20;66.26;97312.31;5079346;28;20695;-67
2024/01/21 04:41:06;;;;;;;25.90;15.07;;;;;;;-3.28;66.99;97318.09;5079650;28;20542;-66
2024/01/21 04:43:32;;;;;;;28.80;17.30;;;;;;;-3.41;67.95;97320.34;5084805;28;20771;-66
2024/01/21 04:45:57;;;;;;;23.60;17.03;;;;;;;-3.30;66.82;97318.06;5084728;28;20181;-67
2024/01/21 04:48:22;;;;;;;27.47;18.27;;;;;;;-3.41;67.70;97310.06;5084575;28;20235;-66
2024/01/21 04:50:48;;;;;;;26.17;17.47;;;;;;;-3.54;69.00;97314.84;5084421;28;20208;-66
2024/01/21 04:53:13;;;;;;;27.17;17.47;;;;;;;-3.53;67.92;97307.19;5080986;28;20186;-67
2024/01/21 04:55:38;;;;;;;29.93;18.50;;;;;;;-3.55;67.97;97295.16;5084745;28;20559;-65
2024/01/21 04:58:04;;;;;;;27.10;19.53;;;;;;;-3.45;67.80;97303.16;5084790;28;20186;-67
2024/01/21 05:00:29;;;;;;;33.67;18.57;;;;;;;-3.21;67.46;97300.31;5084124;28;20194;-67
2024/01/21 05:02:54;;;;;;;33.13;18.70;;;;;;;-3.34;67.38;97295.69;5084239;28;20209;-66
2024/01/21 05:05:20;;;;;;;32.77;17.10;;;;;;;-3.38;67.92;97295.59;5065574;28;20197;-66
2024/01/21 05:07:45;;;;;;;34.43;17.97;;;;;;;-3.14;67.06;97298.75;5064311;28;20273;-66
2024/01/21 05:10:11;;;;;;;26.27;16.70;;;;;;;-3.25;67.12;97306.19;5064446;28;20235;-66
2024/01/21 05:12:36;;;;;;;25.40;16.63;;;;;;;-3.27;66.39;97302.72;5064558;28;20184;-66
2024/01/21 05:15:03;;;;;;;26.13;16.43;;;;;;;-3.43;67.16;97298.03;5064655;28;20189;-66
2024/01/21 05:17:29;;;;;;;27.97;17.03;;;;;;;-3.64;66.39;97301.81;5064647;28;20645;-66
2024/01/21 05:19:54;;;;;;;25.87;18.33;;;;;;;-4.02;67.90;97302.47;5064324;28;20440;-66
2024/01/21 05:22:19;;;;;;;24.17;16.43;;;;;;;-3.59;67.41;97304.50;5064604;28;20211;-65
2024/01/21 05:24:45;;;;;;;31.37;18.40;;;;;;;-3.41;66.74;97302.38;5065196;28;20214;-66
2024/01/21 05:27:10;;;;;;;29.40;16.83;;;;;;;-3.43;66.17;97309.16;5073704;28;20181;-66
2024/01/21 05:29:35;;;;;;;24.33;17.10;;;;;;;-3.42;66.22;97302.34;5084499;28;20181;-64
2024/01/21 05:32:01;;;;;;;23.57;16.07;;;;;;;-3.39;65.89;97296.44;5085657;28;20971;-66
2024/01/21 05:34:26;;;;;;;29.77;17.30;;;;;;;-3.42;66.71;97286.97;5086039;28;20186;-67
2024/01/21 05:36:51;;;;;;;25.63;16.37;;;;;;;-3.42;66.74;97287.81;5099420;28;20208;-67
2024/01/21 05:39:17;;;;;;;23.90;16.30;;;;;;;-3.30;65.89;97286.38;5089452;28;20180;-66
2024/01/21 05:41:42;;;;;;;24.87;17.20;;;;;;;-3.44;67.02;97286.03;5098328;28;20700;-66
2024/01/21 05:44:08;;;;;;;35.07;19.13;;;;;;;-3.23;66.24;97280.56;5085866;28;20287;-67
2024/01/21 05:46:34;;;;;;;28.03;17.30;;;;;;;-3.25;66.42;97287.38;5088364;28;20656;-66
2024/01/21 05:48:59;;;;;;;27.40;18.27;;;;;;;-3.33;66.36;97284.63;5079836;28;20645;-66
2024/01/21 05:51:25;;;;;;;25.57;17.67;;;;;;;-3.50;65.75;97281.59;5079252;28;20296;-68
2024/01/21 05:53:51;;;;;;;31.70;17.03;;;;;;;-3.61;66.43;97283.06;5087884;28;20269;-67
2024/01/21 05:56:19;;;;;;;28.53;18.10;;;;;;;-3.76;67.29;97287.78;5087604;28;20174;-67
2024/01/21 05:58:45;;;;;;;26.00;17.60;;;;;;;-3.55;66.13;97292.59;5087655;28;20411;-66
2024/01/21 06:01:10;;;;;;;22.77;16.77;;;;;;;-3.69;66.61;97300.78;5087319;28;21237;-64
2024/01/21 06:03:36;;;;;;;30.17;18.83;;;;;;;-3.53;65.21;97298.63;5087562;28;20304;-67
2024/01/21 06:06:01;;;;;;;29.00;18.90;;;;;;;-3.69;66.81;97299.94;5087495;28;20186;-65
2024/01/21 06:08:29;;;;;;;25.67;16.63;;;;;;;-3.40;65.08;97295.56;5076537;28;20230;-67
2024/01/21 06:10:55;;;;;;;33.83;17.77;;;;;;;-3.33;64.14;97307.72;5074076;28;20209;-67
2024/01/21 06:13:20;;;;;;;22.30;16.03;;;;;;;-3.56;64.50;97309.69;5087560;28;20911;-65
2024/01/21 06:15:45;;;;;;;24.27;16.50;;;;;;;-3.44;63.98;97309.13;5087530;28;20169;-65
2024/01/21 06:18:11;;;;;;;31.40;16.27;;;;;;;-3.51;64.81;97310.69;5087186;28;20714;-67
2024/01/21 06:20:36;;;;;;;23.87;17.63;;;;;;;-3.62;64.96;97300.13;5087049;28;20278;-67
2024/01/21 06:23:02;;;;;;;25.93;16.40;;;;;;;-3.52;63.62;97306.38;5087266;28;20291;-66
2024/01/21 06:25:27;;;;;;;22.07;15.90;;;;;;;-3.59;63.14;97308.72;5070774;28;20197;-68
2024/01/21 06:27:52;;;;;;;24.50;17.70;;;;;;;-3.68;64.21;97310.25;5088281;28;20258;-68
2024/01/21 06:30:21;;;;;;;29.67;17.93;;;;;;;-3.63;63.35;97315.50;5079882;28;20688;-68
2024/01/21 06:32:46;;;;;;;24.30;16.70;;;;;;;-3.39;63.67;97316.97;5089132;28;20201;-66
2024/01/21 06:35:11;;;;;;;24.40;15.90;;;;;;;-3.57;63.34;97314.78;5087737;28;20519;-67
2024/01/21 06:37:37;;;;;;;26.30;15.73;;;;;;;-3.58;63.66;97321.59;5088045;28;20901;-66
2024/01/21 06:40:04;;;;;;;24.73;15.87;;;;;;;-3.75;64.50;97317.75;5078779;28;20284;-65
2024/01/21 06:42:29;;;;;;;24.47;17.03;;;;;;;-3.61;63.68;97321.53;5087520;28;20174;-66
2024/01/21 06:44:55;;;;;;;39.47;17.17;;;;;;;-3.69;63.07;97320.44;5086134;28;20462;-67
2024/01/21 06:47:20;;;;;;;34.07;16.20;;;;;;;-3.69;64.08;97323.00;5087112;28;20896;-66
2024/01/21 06:49:45;;;;;;;23.70;16.63;;;;;;;-3.65;63.11;97325.69;5088216;28;20197;-66
2024/01/21 06:52:11;;;;;;;23.30;15.83;;;;;;;-3.50;63.73;97325.22;5087561;28;20184;-67
2024/01/21 06:54:36;;;;;;;26.10;16.53;;;;;;;-3.35;62.64;97324.78;5088372;28;20740;-65
2024/01/21 06:57:02;;;;;;;24.13;16.10;;;;;;;-3.22;62.89;97334.50;5086563;28;20177;-68
2024/01/21 06:59:27;;;;;;;21.53;15.70;;;;;;;-3.29;62.33;97336.88;5087593;28;20205;-66
2024/01/21 07:01:53;;;;;;;22.77;15.83;;;;;;;-3.39;62.35;97335.78;5087842;28;20180;-65
2024/01/21 07:04:18;;;;;;;26.30;17.50;;;;;;;-3.28;62.88;97333.50;5077703;28;20251;-67
2024/01/21 07:06:44;;;;;;;21.90;16.30;;;;;;;-3.21;62.52;97340.53;5068114;28;20178;-66
2024/01/21 07:09:10;;;;;;;24.27;15.83;;;;;;;-3.07;61.80;97349.44;5067447;28;20175;-67
2024/01/21 07:11:40;;;;;;;21.07;14.77;;;;;;;-3.04;61.62;97346.06;5067694;28;20486;-66
2024/01/21 07:14:05;;;;;;;19.33;14.33;;;;;;;-3.13;61.50;97351.84;5067617;28;20962;-67
2024/01/21 07:16:31;;;;;;;20.53;15.73;;;;;;;-2.93;61.63;97349.75;5069335;28;20424;-66
2024/01/21 07:18:57;;;;;;;20.60;14.13;;;;;;;-3.00;60.96;97347.84;5088403;28;21075;-66
2024/01/21 07:21:22;;;;;;;20.87;15.30;;;;;;;-2.82;61.67;97348.31;5089144;28;20590;-66
2024/01/21 07:23:47;;;;;;;22.57;14.17;;;;;;;-2.08;58.62;97349.06;5089290;28;20193;-66
2024/01/21 07:26:13;;;;;;;19.33;14.90;;;;;;;-1.22;56.58;97345.56;5089108;28;20186;-67
2024/01/21 07:28:38;;;;;;;22.00;15.20;;;;;;;-0.57;54.20;97342.31;5089372;28;20200;-66
2024/01/21 07:31:04;;;;;;;18.63;14.07;;;;;;;-0.01;53.38;97335.34;5072231;28;20198;-65
2024/01/21 07:33:29;;;;;;;21.30;14.50;;;;;;;0.26;51.37;97331.41;5071277;28;20176;-64
2024/01/21 07:35:55;;;;;;;20.10;14.17;;;;;;;0.02;52.08;97338.81;5072696;28;20525;-67
2024/01/21 07:38:21;;;;;;;23.27;16.33;;;;;;;-0.28;52.82;97341.03;5067459;28;20197;-64
2024/01/21 07:40:47;;;;;;;18.77;14.50;;;;;;;0.12;51.90;97346.72;5067459;28;20194;-67
2024/01/21 07:43:13;;;;;;;21.20;15.43;;;;;;;0.41;51.69;97344.47;5066953;28;20320;-65
2024/01/21 07:45:38;;;;;;;17.80;15.40;;;;;;;0.93;50.36;97341.53;5071379;28;20502;-68
2024/01/21 07:48:04;;;;;;;20.50;15.50;;;;;;;1.27;49.57;97345.25;5087235;28;20177;-65
2024/01/21 07:50:30;;;;;;;19.10;13.90;;;;;;;1.78;48.24;97343.03;5083366;28;20198;-66
2024/01/21 07:52:55;;;;;;;20.33;16.20;;;;;;;2.58;46.76;97340.78;5066121;28;20232;-67
2024/01/21 07:55:21;;;;;;;22.63;15.63;;;;;;;2.84;45.79;97332.22;5066213;28;20182;-67
2024/01/21 07:57:46;;;;;;;26.63;16.53;;;;;;;2.61;45.98;97326.97;5066565;28;20981;-66
2024/01/21 08:00:12;;;;;;;20.87;15.77;;;;;;;2.77;46.00;97333.06;5079071;28;20194;-67
2024/01/21 08:02:37;;;;;;;17.47;14.90;;;;;;;2.37;46.56;97338.13;5086500;28;20217;-67
2024/01/21 08:05:03;;;;;;;19.43;15.13;;;;;;;1.75;48.24;97342.13;5070250;28;20173;-67
2024/01/21 08:07:29;;;;;;;18.40;14.10;;;;;;;1.51;49.40;97343.72;5066020;28;20185;-68
2024/01/21 08:09:54;;;;;;;21.90;16.37;;;;;;;1.76;49.08;97339.56;5065972;28;20618;-66
2024/01/21 08:12:19;;;;;;;17.87;15.00;;;;;;;2.12;48.22;97338.03;5066172;28;20841;-67
2024/01/21 08:14:45;;;;;;;17.93;14.47;;;;;;;2.10;48.55;97342.31;5066477;28;20176;-65
2024/01/21 08:17:11;;;;;;;19.53;15.70;;;;;;;2.18;48.31;97340.66;5066082;28;20698;-67
2024/01/21 08:19:38;;;;;;;17.07;15.27;;;;;;;2.14;48.28;97341.47;5078980;28;20174;-66
2024/01/21 08:22:04;;;;;;;24.40;17.60;;;;;;;2.13;48.51;97347.53;5087077;28;20602;-68
2024/01/21 08:24:29;;;;;;;17.50;15.70;;;;;;;2.05;48.79;97342.31;5086965;28;20459;-67
2024/01/21 08:26:55;;;;;;;18.13;15.60;;;;;;;2.16;48.84;97346.69;5071116;28;20602;-67
2024/01/21 08:29:20;;;;;;;18.37;15.83;;;;;;;1.90;49.57;97345.69;5071787;28;20177;-67
2024/01/21 08:31:46;;;;;;;19.40;14.80;;;;;;;2.25;48.47;97346.72;5075139;28;20193;-66
2024/01/21 08:34:12;;;;;;;18.47;15.30;;;;;;;2.26;48.38;97356.22;5077736;28;20297;-68
2024/01/21 08:36:37;;;;;;;18.40;15.47;;;;;;;2.28;48.05;97357.94;5071415;28;20530;-66
2024/01/21 08:39:06;;;;;;;19.60;15.27;;;;;;;2.46;48.09;97351.13;5067760;28;20181;-66
2024/01/21 08:41:35;;;;;;;21.70;15.77;;;;;;;2.44;48.23;97347.66;5066601;28;20194;-67
2024/01/21 08:44:01;;;;;;;21.37;16.23;;;;;;;2.44;48.06;97348.50;5070506;28;20456;-66
2024/01/21 08:46:26;;;;;;;17.90;15.40;;;;;;;2.27;48.31;97348.47;5077842;28;20428;-66
2024/01/21 08:48:51;;;;;;;17.87;15.43;;;;;;;2.58;48.20;97348.56;5070216;28;20438;-65
2024/01/21 08:51:17;;;;;;;18.20;15.43;;;;;;;2.45;48.11;97346.78;5080682;28;20735;-68
2024/01/21 08:53:42;;;;;;;20.87;15.90;;;;;;;2.54;48.36;97346.81;5070451;28;20264;-65
2024/01/21 08:56:08;;;;;;;17.50;14.80;;;;;;;2.49;48.26;97339.03;5074439;28;20217;-66
2024/01/21 08:58:33;;;;;;;16.60;14.63;;;;;;;2.28;49.08;97341.53;5070559;28;20184;-67
2024/01/21 09:00:58;;;;;;;21.40;16.60;;;;;;;2.40;48.94;97339.00;5078830;28;20240;-67
2024/01/21 09:03:24;;;;;;;21.43;15.40;;;;;;;2.54;49.02;97336.44;5075760;28;20201;-66
2024/01/21 09:05:49;;;;;;;19.83;15.57;;;;;;;2.71;48.88;97349.44;5076847;28;20174;-65
2024/01/21 09:08:14;;;;;;;16.47;14.53;;;;;;;2.72;48.68;97346.88;5071726;28;20178;-65
2024/01/21 09:10:43;;;;;;;24.90;16.20;;;;;;;2.65;48.67;97358.09;5070114;28;20201;-66
2024/01/21 09:13:08;;;;;;;20.30;16.37;;;;;;;3.03;48.57;97359.03;5071813;28;20657;-68
2024/01/21 09:15:34;;;;;;;18.57;16.57;;;;;;;3.20;47.66;97365.06;5075609;28;20438;-66
2024/01/21 09:17:59;;;;;;;18.00;15.20;;;;;;;3.60;47.43;97360.75;5078193;28;20173;-65
2024/01/21 09:20:25;;;;;;;22.87;17.07;;;;;;;3.39;47.22;97366.81;5076288;28;20216;-66
2024/01/21 09:22:50;;;;;;;18.33;15.53;;;;;;;3.37;48.05;97378.06;5073873;28;20190;-65
2024/01/21 09:25:15;;;;;;;22.30;17.30;;;;;;;3.87;47.25;97369.34;5076305;28;20177;-65
2024/01/21 09:27:41;;;;;;;22.37;16.60;;;;;;;3.89;46.79;97390.13;5072204;28;20190;-64
2024/01/21 09:30:07;;;;;;;20.70;17.33;;;;;;;3.56;47.54;97390.16;5075275;28;20236;-67
2024/01/21 09:32:32;;;;;;;19.93;14.77;;;;;;;3.42;48.34;97391.03;5082539;28;20536;-69
2024/01/21 09:34:57;;;;;;;19.80;15.63;;;;;;;3.32;48.27;97388.44;5080763;28;20180;-67
2024/01/21 09:37:23;;;;;;;19.97;15.17;;;;;;;3.23;49.10;97392.75;5082980;28;20190;-68
2024/01/21 09:39:48;;;;;;;22.83;16.43;;;;;;;3.12;49.23;97385.81;5078445;28;20818;-65
2024/01/21 09:42:16;;;;;;;17.67;15.50;;;;;;;2.84;50.11;97397.00;5080605;28;20192;-68
2024/01/21 09:44:42;;;;;;;20.93;16.17;;;;;;;2.96;50.08;97384.06;5080892;28;20282;-68
2024/01/21 09:47:09;;;;;;;21.43;18.43;;;;;;;3.01;49.96;97377.16;5082617;28;20835;-67
2024/01/21 09:49:36;;;;;;;22.40;14.83;;;;;;;2.94;50.37;97386.66;5073455;28;20185;-67
2024/01/21 09:52:02;;;;;;;20.73;15.90;;;;;;;3.04;50.77;97391.84;5073135;28;20476;-68
2024/01/21 09:54:28;;;;;;;25.73;16.47;;;;;;;3.08;50.59;97388.41;5069415;28;20450;-68
2024/01/21 09:56:53;;;;;;;19.10;16.50;;;;;;;3.25;50.27;97376.31;5078602;28;20421;-67
2024/01/21 09:59:19;;;;;;;19.70;15.97;;;;;;;3.15;50.40;97372.84;5085528;28;20805;-68
2024/01/21 10:01:44;;;;;;;17.47;15.53;;;;;;;3.11;50.84;97381.50;5079858;28;20205;-67
2024/01/21 10:04:11;;;;;;;18.60;16.10;;;;;;;2.86;51.51;97379.72;5078287;28;20255;-68
2024/01/21 10:06:37;;;;;;;19.30;14.27;;;;;;;2.81;51.94;97394.38;5066706;28;20190;-67
2024/01/21 10:09:21;;;;;;;28.57;15.43;;;;;;;2.87;51.83;97378.88;5066154;28;20424;-68
2024/01/21 10:11:53;;;;;;;22.90;15.70;;;;;;;2.65;52.42;97381.41;5067702;28;20205;-67
2024/01/21 10:14:20;;;;;;;18.70;13.50;;;;;;;2.51;53.04;97394.31;5077327;28;20491;-67
2024/01/21 10:16:46;;;;;;;18.53;15.47;;;;;;;2.49;53.07;97388.25;5082576;28;20516;-68
2024/01/21 10:19:13;;;;;;;19.37;15.20;;;;;;;2.51;53.71;97393.44;5078036;28;20447;-66
2024/01/21 10:21:38;;;;;;;20.47;15.93;;;;;;;2.50;53.86;97394.28;5086332;28;20463;-68
2024/01/21 10:24:07;;;;;;;20.07;14.60;;;;;;;2.43;53.63;97389.94;5080022;28;20556;-66
2024/01/21 10:26:32;;;;;;;18.70;14.03;;;;;;;3.41;55.32;97387.56;5074553;28;20201;-68
2024/01/21 10:29:00;;;;;;;17.00;13.70;;;;;;;2.76;53.75;97391.78;5077299;28;21008;-67
2024/01/21 10:31:26;;;;;;;20.80;13.90;;;;;;;2.47;54.65;97386.53;5069800;28;20755;-69
2024/01/21 10:33:51;;;;;;;19.77;14.87;;;;;;;2.20;54.85;97369.16;5077630;28;20500;-68
2024/01/21 10:36:18;;;;;;;24.33;17.00;;;;;;;2.08;55.55;97357.88;5073178;28;20190;-67
2024/01/21 10:38:51;;;;;;;24.00;14.43;;;;;;;1.97;55.43;97364.72;5071547;28;20190;-67
2024/01/21 10:41:24;;;;;;;19.47;14.80;;;;;;;2.06;55.51;97354.41;5075305;28;20557;-68
2024/01/21 10:43:54;;;;;;;18.20;14.20;;;;;;;2.07;55.22;97360.44;5066288;28;20583;-68
2024/01/21 10:46:20;;;;;;;24.00;14.33;;;;;;;2.09;55.46;97364.75;5071962;28;20440;-69
2024/01/21 10:48:47;;;;;;;18.13;13.93;;;;;;;2.19;55.38;97376.03;5072184;28;20436;-67
2024/01/21 10:51:15;;;;;;;21.63;12.97;;;;;;;1.89;56.56;97382.78;5076232;28;20209;-67
2024/01/21 10:53:41;;;;;;;17.70;15.00;;;;;;;2.00;55.96;97381.97;5077047;28;20434;-67
2024/01/21 10:56:08;;;;;;;22.33;13.30;;;;;;;1.98;56.16;97383.69;5076193;28;20937;-68
2024/01/21 10:58:33;;;;;;;19.13;12.80;;;;;;;2.00;56.58;97384.56;5085961;28;20173;-67
2024/01/21 11:01:01;;;;;;;18.40;13.20;;;;;;;2.08;56.37;97377.72;5086455;28;20431;-67
2024/01/21 11:03:31;;;;;;;20.40;13.90;;;;;;;1.95;56.74;97386.28;5083372;28;20305;-68
2024/01/21 11:06:06;;;;;;;19.77;14.10;;;;;;;1.92;56.69;97378.50;5067596;28;20464;-66
2024/01/21 11:08:32;;;;;;;17.43;13.40;;;;;;;2.21;56.25;97371.72;5090598;28;21550;-68
2024/01/21 11:11:12;;;;;;;19.57;13.30;;;;;;;2.12;56.64;97384.63;5090665;28;20464;-68
2024/01/21 11:13:52;;;;;;;19.10;12.60;;;;;;;2.25;56.48;97376.06;5092332;28;20173;-68